Time;durP1;ratioP1;P1;durP2;ratioP2;P2;SDS_P1;SDS_P2;PMS_P1;PMS_P2;Temp;Humidity;BMP_temperature;BMP_pressure;BME280_temperature;BME280_humidity;BME280_pressure;Samples;Min_cycle;Max_cycle;Signal;HPM_P1;HPM_P2
2023/06/11 00:00:17;;;;;;;7.53;5.50;;;;;;;;;;7392005;19;20352;-62
2023/06/11 00:02:42;;;;;;;8.88;5.20;;;;;;;;;;7394462;19;20006;-63
2023/06/11 00:05:09;;;;;;;7.53;5.40;;;;;;;;;;7395860;19;20485;-63
2023/06/11 00:07:34;;;;;;;9.20;4.85;;;;;;;;;;7394492;19;20010;-63
2023/06/11 00:10:03;;;;;;;9.40;5.18;;;;;;;;;;7395012;19;20024;-63
2023/06/11 00:12:29;;;;;;;8.60;5.13;;;;;;;;;;7395327;19;20017;-63
2023/06/11 00:14:55;;;;;;;7.85;5.32;;;;;;;;;;7395754;19;20078;-63
2023/06/11 00:17:20;;;;;;;9.10;5.50;;;;;;;;;;7393335;19;20751;-63
2023/06/11 00:19:47;;;;;;;9.57;5.20;;;;;;;;;;7399280;19;20006;-63
2023/06/11 00:22:14;;;;;;;13.02;5.50;;;;;;;;;;7398465;19;20022;-63
2023/06/11 00:24:40;;;;;;;8.00;5.53;;;;;;;;;;7400441;19;20010;-62
2023/06/11 00:27:06;;;;;;;7.07;5.15;;;;;;;;;;7408307;19;20031;-64
2023/06/11 00:29:31;;;;;;;9.43;5.93;;;;;;;;;;7398427;19;20029;-64
2023/06/11 00:31:57;;;;;;;7.22;4.85;;;;;;;;;;7403067;19;20014;-64
2023/06/11 00:34:22;;;;;;;8.82;5.85;;;;;;;;;;7402571;19;20044;-64
2023/06/11 00:36:47;;;;;;;8.95;5.88;;;;;;;;;;7402697;19;20048;-64
2023/06/11 00:39:13;;;;;;;8.50;5.68;;;;;;;;;;7395968;19;20695;-63
2023/06/11 00:41:45;;;;;;;7.55;5.18;;;;;;;;;;7400567;19;20015;-63
2023/06/11 00:44:17;;;;;;;7.90;5.72;;;;;;;;;;7393920;19;20077;-63
2023/06/11 00:46:47;;;;;;;8.73;6.10;;;;;;;;;;7393757;19;20101;-63
2023/06/11 00:49:13;;;;;;;10.18;5.70;;;;;;;;;;7391385;19;20368;-62
2023/06/11 00:51:42;;;;;;;11.30;5.85;;;;;;;;;;7390882;19;20003;-63
2023/06/11 00:54:12;;;;;;;8.70;5.88;;;;;;;;;;7392993;19;20021;-62
2023/06/11 00:56:44;;;;;;;8.45;5.85;;;;;;;;;;7394127;19;20011;-62
2023/06/11 00:59:11;;;;;;;7.75;5.60;;;;;;;;;;7395635;19;20014;-62
2023/06/11 01:02:06;;;;;;;8.45;5.95;;;;;;;;;;7397707;19;20116;-63
2023/06/11 01:04:35;;;;;;;8.30;6.13;;;;;;;;;;7402603;19;20023;-63
2023/06/11 01:07:05;;;;;;;7.43;5.50;;;;;;;;;;7399681;19;20018;-62
2023/06/11 01:09:31;;;;;;;9.43;5.90;;;;;;;;;;7403299;19;20010;-63
2023/06/11 01:11:58;;;;;;;8.02;5.68;;;;;;;;;;7389756;19;20358;-61
2023/06/11 01:14:23;;;;;;;10.63;5.88;;;;;;;;;;7391334;19;20019;-63
2023/06/11 01:16:52;;;;;;;7.90;5.57;;;;;;;;;;7390634;19;20010;-63
2023/06/11 01:19:38;;;;;;;7.60;5.65;;;;;;;;;;7390599;19;20023;-63
2023/06/11 01:22:13;;;;;;;7.85;6.00;;;;;;;;;;7390908;19;20010;-63
2023/06/11 01:24:53;;;;;;;8.93;5.68;;;;;;;;;;7390761;19;20034;-63
2023/06/11 01:27:27;;;;;;;8.90;6.03;;;;;;;;;;7388579;19;20002;-63
2023/06/11 01:29:53;;;;;;;10.57;6.15;;;;;;;;;;7387706;19;20003;-63
2023/06/11 01:32:23;;;;;;;8.52;6.30;;;;;;;;;;7390252;19;20338;-63
2023/06/11 01:34:49;;;;;;;9.10;6.18;;;;;;;;;;7390902;19;20018;-63
2023/06/11 01:37:14;;;;;;;8.15;5.63;;;;;;;;;;7389188;19;20002;-63
2023/06/11 01:39:45;;;;;;;10.18;6.60;;;;;;;;;;7390290;19;20346;-63
2023/06/11 01:42:10;;;;;;;9.38;5.30;;;;;;;;;;7390752;19;20018;-61
2023/06/11 01:44:36;;;;;;;8.20;5.53;;;;;;;;;;7390468;19;20007;-63
2023/06/11 01:47:01;;;;;;;9.60;6.40;;;;;;;;;;7389620;19;20027;-64
2023/06/11 01:49:26;;;;;;;11.25;6.03;;;;;;;;;;7389720;19;20110;-64
2023/06/11 01:51:52;;;;;;;8.63;6.10;;;;;;;;;;7390296;19;20351;-64
2023/06/11 01:54:17;;;;;;;8.68;5.85;;;;;;;;;;7389156;19;20006;-64
2023/06/11 01:56:43;;;;;;;9.13;5.95;;;;;;;;;;7387738;19;20018;-64
2023/06/11 01:59:09;;;;;;;8.50;5.68;;;;;;;;;;7389233;19;20693;-64
2023/06/11 02:01:36;;;;;;;8.82;5.97;;;;;;;;;;7389483;19;20010;-64
2023/06/11 02:04:02;;;;;;;10.05;6.10;;;;;;;;;;7387474;19;20014;-60
2023/06/11 02:06:28;;;;;;;9.00;6.05;;;;;;;;;;7388831;19;20481;-60
2023/06/11 02:08:53;;;;;;;10.10;6.35;;;;;;;;;;7388100;19;20015;-63
2023/06/11 02:11:19;;;;;;;9.02;6.03;;;;;;;;;;7388326;19;20033;-64
2023/06/11 02:13:44;;;;;;;9.65;6.00;;;;;;;;;;7386966;19;20070;-64
2023/06/11 02:16:09;;;;;;;9.55;6.13;;;;;;;;;;7388477;19;20015;-63
2023/06/11 02:18:35;;;;;;;8.48;5.50;;;;;;;;;;7387835;19;20010;-64
2023/06/11 02:21:00;;;;;;;8.52;5.85;;;;;;;;;;7395604;19;20013;-64
2023/06/11 02:23:26;;;;;;;9.65;6.55;;;;;;;;;;7395630;19;20020;-64
2023/06/11 02:25:51;;;;;;;9.30;5.80;;;;;;;;;;7394501;19;20359;-64
2023/06/11 02:28:17;;;;;;;10.15;6.07;;;;;;;;;;7393253;19;20011;-64
2023/06/11 02:30:42;;;;;;;8.43;5.68;;;;;;;;;;7395156;19;20021;-64
2023/06/11 02:33:07;;;;;;;10.43;6.25;;;;;;;;;;7395115;19;20010;-64
2023/06/11 02:35:33;;;;;;;8.32;6.07;;;;;;;;;;7395724;19;20484;-64
2023/06/11 02:37:58;;;;;;;8.35;5.60;;;;;;;;;;7390939;19;20017;-64
2023/06/11 02:40:23;;;;;;;10.88;6.60;;;;;;;;;;7395536;19;20015;-64
2023/06/11 02:42:48;;;;;;;10.27;6.30;;;;;;;;;;7396304;19;20031;-64
2023/06/11 02:45:14;;;;;;;9.70;6.53;;;;;;;;;;7395520;19;20010;-64
2023/06/11 02:47:39;;;;;;;10.32;5.97;;;;;;;;;;7394157;19;20009;-64
2023/06/11 02:50:05;;;;;;;7.88;5.72;;;;;;;;;;7395135;19;20317;-63
2023/06/11 02:52:30;;;;;;;7.88;5.57;;;;;;;;;;7395236;19;20579;-64
2023/06/11 02:54:56;;;;;;;12.07;5.80;;;;;;;;;;7394129;19;20021;-64
2023/06/11 02:57:21;;;;;;;10.07;5.70;;;;;;;;;;7393901;19;20025;-64
2023/06/11 02:59:46;;;;;;;8.85;5.97;;;;;;;;;;7392823;19;20409;-64
2023/06/11 03:02:11;;;;;;;8.98;6.13;;;;;;;;;;7392864;19;20474;-64
2023/06/11 03:04:37;;;;;;;8.65;5.90;;;;;;;;;;7394994;19;20627;-64
2023/06/11 03:07:02;;;;;;;10.70;5.88;;;;;;;;;;7394748;19;20025;-64
2023/06/11 03:09:28;;;;;;;7.13;5.22;;;;;;;;;;7394635;19;20086;-64
2023/06/11 03:11:53;;;;;;;8.77;5.93;;;;;;;;;;7394599;19;20022;-64
2023/06/11 03:14:20;;;;;;;9.35;5.97;;;;;;;;;;7392967;19;20768;-63
2023/06/11 03:16:46;;;;;;;7.95;5.82;;;;;;;;;;7394001;19;20006;-62
2023/06/11 03:19:11;;;;;;;8.07;5.65;;;;;;;;;;7393999;19;20415;-64
2023/06/11 03:21:37;;;;;;;8.38;6.20;;;;;;;;;;7394541;19;20013;-64
2023/06/11 03:24:02;;;;;;;8.38;6.30;;;;;;;;;;7392134;19;20078;-62
2023/06/11 03:26:28;;;;;;;8.10;5.53;;;;;;;;;;7392750;19;20413;-63
2023/06/11 03:28:53;;;;;;;11.55;6.47;;;;;;;;;;7393743;19;20377;-64
2023/06/11 03:31:19;;;;;;;7.35;5.50;;;;;;;;;;7392762;19;20394;-63
2023/06/11 03:33:44;;;;;;;9.15;6.25;;;;;;;;;;7395682;19;20013;-64
2023/06/11 03:36:10;;;;;;;9.02;6.38;;;;;;;;;;7394718;19;19995;-64
2023/06/11 03:38:35;;;;;;;10.10;6.18;;;;;;;;;;7392200;19;20162;-64
2023/06/11 03:41:00;;;;;;;8.90;5.32;;;;;;;;;;7394363;19;20026;-64
2023/06/11 03:43:26;;;;;;;8.70;5.70;;;;;;;;;;7394908;19;19998;-64
2023/06/11 03:45:51;;;;;;;8.73;6.13;;;;;;;;;;7394944;19;20002;-64
2023/06/11 03:48:16;;;;;;;8.90;5.97;;;;;;;;;;7395533;19;20027;-63
2023/06/11 03:50:42;;;;;;;8.00;5.93;;;;;;;;;;7401941;19;20003;-64
2023/06/11 03:53:07;;;;;;;9.70;5.28;;;;;;;;;;7395816;19;19999;-62
2023/06/11 03:55:32;;;;;;;7.35;5.43;;;;;;;;;;7390588;19;20027;-62
2023/06/11 03:57:58;;;;;;;8.77;5.80;;;;;;;;;;7391433;19;20112;-64
2023/06/11 04:00:23;;;;;;;10.20;5.65;;;;;;;;;;7392865;19;20011;-63
2023/06/11 04:02:48;;;;;;;11.48;6.07;;;;;;;;;;7392658;19;20014;-63
2023/06/11 04:05:14;;;;;;;8.88;6.07;;;;;;;;;;7395277;19;20035;-62
2023/06/11 04:07:40;;;;;;;10.27;5.85;;;;;;;;;;7395194;19;20011;-63
2023/06/11 04:10:07;;;;;;;13.88;6.03;;;;;;;;;;7400005;19;20031;-64
2023/06/11 04:12:32;;;;;;;9.30;5.10;;;;;;;;;;7399953;19;20074;-63
2023/06/11 04:14:57;;;;;;;9.02;5.85;;;;;;;;;;7396331;19;20011;-63
2023/06/11 04:17:23;;;;;;;8.70;5.70;;;;;;;;;;7400921;19;20269;-63
2023/06/11 04:19:48;;;;;;;8.15;5.43;;;;;;;;;;7409144;19;20027;-64
2023/06/11 04:22:13;;;;;;;8.98;5.70;;;;;;;;;;7401125;19;20002;-64
2023/06/11 04:24:38;;;;;;;7.75;5.30;;;;;;;;;;7394724;19;20155;-62
2023/06/11 04:27:06;;;;;;;7.28;5.38;;;;;;;;;;7393881;19;20398;-64
2023/06/11 04:29:33;;;;;;;8.68;5.68;;;;;;;;;;7391170;19;20035;-63
2023/06/11 04:32:01;;;;;;;7.13;5.32;;;;;;;;;;7394851;19;20010;-62
2023/06/11 04:34:29;;;;;;;11.32;5.90;;;;;;;;;;7392331;19;20014;-63
2023/06/11 04:36:55;;;;;;;10.85;5.50;;;;;;;;;;7393261;19;20017;-65
2023/06/11 04:39:20;;;;;;;8.65;5.25;;;;;;;;;;7393241;19;20357;-63
2023/06/11 04:41:47;;;;;;;8.50;4.82;;;;;;;;;;7394079;19;20009;-63
2023/06/11 04:44:12;;;;;;;6.75;5.05;;;;;;;;;;7393972;19;20021;-62
2023/06/11 04:46:38;;;;;;;8.15;5.40;;;;;;;;;;7396206;19;20062;-63
2023/06/11 04:49:06;;;;;;;8.63;5.28;;;;;;;;;;7393464;19;20436;-62
2023/06/11 04:51:32;;;;;;;9.35;5.35;;;;;;;;;;7392579;19;20352;-63
2023/06/11 04:54:01;;;;;;;7.78;4.97;;;;;;;;;;7390227;19;20017;-62
2023/06/11 04:56:27;;;;;;;8.75;5.55;;;;;;;;;;7391813;19;20481;-63
2023/06/11 04:58:52;;;;;;;8.77;5.30;;;;;;;;;;7389049;19;20014;-62
2023/06/11 05:01:18;;;;;;;7.45;5.53;;;;;;;;;;7392222;19;20002;-63
2023/06/11 05:03:43;;;;;;;10.57;5.40;;;;;;;;;;7389306;19;20017;-63
2023/06/11 05:06:08;;;;;;;7.43;4.80;;;;;;;;;;7392101;19;19998;-63
2023/06/11 05:08:34;;;;;;;8.45;5.55;;;;;;;;;;7389253;19;20042;-62
2023/06/11 05:11:00;;;;;;;7.95;4.90;;;;;;;;;;7390468;19;20023;-63
2023/06/11 05:13:26;;;;;;;8.07;5.25;;;;;;;;;;7392331;19;20021;-63
2023/06/11 05:15:55;;;;;;;12.15;5.15;;;;;;;;;;7392160;19;20330;-63
2023/06/11 05:18:21;;;;;;;9.15;5.15;;;;;;;;;;7390415;19;20006;-62
2023/06/11 05:20:49;;;;;;;7.55;5.50;;;;;;;;;;7390537;19;20096;-62
2023/06/11 05:23:15;;;;;;;8.23;5.00;;;;;;;;;;7391874;19;20015;-63
2023/06/11 05:25:46;;;;;;;8.13;5.05;;;;;;;;;;7391891;19;20006;-63
2023/06/11 05:28:13;;;;;;;8.20;5.03;;;;;;;;;;7389628;19;20007;-63
2023/06/11 05:30:39;;;;;;;8.43;4.82;;;;;;;;;;7389791;19;20002;-63
2023/06/11 05:33:05;;;;;;;8.43;5.18;;;;;;;;;;7390175;19;20010;-63
2023/06/11 05:35:30;;;;;;;10.75;5.35;;;;;;;;;;7390964;19;20018;-63
2023/06/11 05:37:56;;;;;;;8.20;5.05;;;;;;;;;;7388334;19;20006;-63
2023/06/11 05:40:22;;;;;;;6.97;4.95;;;;;;;;;;7390471;19;20006;-63
2023/06/11 05:42:47;;;;;;;7.25;5.05;;;;;;;;;;7390723;19;20010;-63
2023/06/11 05:45:13;;;;;;;7.60;4.93;;;;;;;;;;7389897;19;20119;-64
2023/06/11 05:47:38;;;;;;;7.60;4.38;;;;;;;;;;7386593;19;20014;-63
2023/06/11 05:50:04;;;;;;;9.45;4.88;;;;;;;;;;7387149;19;20011;-64
2023/06/11 05:52:29;;;;;;;7.78;4.95;;;;;;;;;;7390232;19;20005;-63
2023/06/11 05:54:54;;;;;;;9.95;4.55;;;;;;;;;;7397377;19;20014;-64
2023/06/11 05:57:24;;;;;;;7.55;5.25;;;;;;;;;;7396208;19;20002;-63
2023/06/11 05:59:51;;;;;;;7.53;5.15;;;;;;;;;;7396863;19;20047;-63
2023/06/11 06:02:17;;;;;;;7.95;4.70;;;;;;;;;;7397524;19;20011;-63
2023/06/11 06:04:46;;;;;;;7.40;4.95;;;;;;;;;;7397645;19;20031;-63
2023/06/11 06:07:11;;;;;;;9.35;5.03;;;;;;;;;;7395347;19;20039;-62
2023/06/11 06:09:36;;;;;;;7.63;5.00;;;;;;;;;;7398088;19;20014;-63
2023/06/11 06:12:02;;;;;;;9.02;5.22;;;;;;;;;;7396259;19;20003;-64
2023/06/11 06:14:27;;;;;;;6.65;4.50;;;;;;;;;;7397618;19;20010;-64
2023/06/11 06:16:52;;;;;;;8.27;4.78;;;;;;;;;;7396697;19;20021;-64
2023/06/11 06:19:18;;;;;;;7.43;4.97;;;;;;;;;;7396190;19;20002;-64
2023/06/11 06:21:43;;;;;;;7.10;4.70;;;;;;;;;;7395272;19;20563;-63
2023/06/11 06:24:10;;;;;;;7.25;4.90;;;;;;;;;;7396324;19;20090;-63
2023/06/11 06:26:40;;;;;;;7.65;4.43;;;;;;;;;;7387441;19;20019;-64
2023/06/11 06:29:05;;;;;;;;;;;;;;;;;;7393986;19;20629;-64
2023/06/11 06:31:32;;;;;;;6.97;4.50;;;;;;;;;;7395863;19;19961;-64
2023/06/11 06:33:58;;;;;;;8.00;4.57;;;;;;;;;;7394105;19;20025;-68
2023/06/11 06:36:23;;;;;;;7.78;4.65;;;;;;;;;;7395681;19;20435;-68
2023/06/11 06:38:48;;;;;;;7.82;4.82;;;;;;;;;;7393952;19;20375;-67
2023/06/11 06:41:13;;;;;;;6.97;5.13;;;;;;;;;;7397122;19;20476;-68
2023/06/11 06:43:39;;;;;;;6.45;4.55;;;;;;;;;;7394291;19;20531;-67
2023/06/11 06:46:04;;;;;;;5.70;4.38;;;;;;;;;;7396685;19;20006;-66
2023/06/11 06:48:32;;;;;;;8.15;4.75;;;;;;;;;;7391384;19;20050;-68
2023/06/11 06:51:00;;;;;;;7.03;4.95;;;;;;;;;;7394659;19;20043;-67
2023/06/11 06:53:25;;;;;;;6.97;4.80;;;;;;;;;;7394124;19;20008;-68
2023/06/11 06:55:50;;;;;;;7.90;4.90;;;;;;;;;;7393727;19;20027;-69
2023/06/11 06:58:16;;;;;;;7.53;5.00;;;;;;;;;;7376395;19;20026;-67
2023/06/11 07:00:41;;;;;;;8.65;5.03;;;;;;;;;;7393531;19;20007;-67
2023/06/11 07:03:07;;;;;;;6.53;4.25;;;;;;;;;;7392811;19;20070;-65
2023/06/11 07:05:32;;;;;;;8.75;4.78;;;;;;;;;;7390494;19;20510;-63
2023/06/11 07:07:57;;;;;;;7.65;4.75;;;;;;;;;;7389786;19;20006;-62
2023/06/11 07:10:23;;;;;;;7.35;4.80;;;;;;;;;;7382968;19;20014;-64
2023/06/11 07:12:48;;;;;;;5.85;4.22;;;;;;;;;;7393213;19;20010;-63
2023/06/11 07:15:13;;;;;;;8.10;4.70;;;;;;;;;;7395761;19;19991;-64
2023/06/11 07:17:38;;;;;;;7.75;4.85;;;;;;;;;;7393627;19;20034;-64
2023/06/11 07:20:07;;;;;;;7.82;5.00;;;;;;;;;;7395239;19;19999;-63
2023/06/11 07:22:32;;;;;;;6.40;4.90;;;;;;;;;;7393971;19;20013;-63
2023/06/11 07:24:58;;;;;;;6.32;4.60;;;;;;;;;;7394511;19;20006;-63
2023/06/11 07:27:23;;;;;;;8.80;4.65;;;;;;;;;;7393425;19;20002;-64
2023/06/11 07:29:49;;;;;;;7.47;4.25;;;;;;;;;;7393610;19;19998;-62
2023/06/11 07:32:14;;;;;;;7.60;4.90;;;;;;;;;;7394012;19;20002;-63
2023/06/11 07:34:40;;;;;;;6.45;4.70;;;;;;;;;;7394452;19;20058;-63
2023/06/11 07:37:05;;;;;;;6.45;4.88;;;;;;;;;;7393928;19;20017;-62
2023/06/11 07:39:31;;;;;;;14.20;4.63;;;;;;;;;;7394534;19;20388;-64
2023/06/11 07:41:57;;;;;;;8.82;4.43;;;;;;;;;;7394339;19;19995;-62
2023/06/11 07:44:22;;;;;;;6.28;4.60;;;;;;;;;;7393288;19;20010;-64
2023/06/11 07:46:47;;;;;;;7.78;4.55;;;;;;;;;;7392855;19;20481;-64
2023/06/11 07:49:13;;;;;;;7.18;4.57;;;;;;;;;;7391441;19;20465;-64
2023/06/11 07:51:38;;;;;;;7.50;4.50;;;;;;;;;;7391048;19;20007;-64
2023/06/11 07:54:04;;;;;;;10.30;4.88;;;;;;;;;;7385053;19;20388;-64
2023/06/11 07:56:30;;;;;;;7.38;4.80;;;;;;;;;;7389890;19;20484;-63
2023/06/11 07:58:56;;;;;;;9.57;4.63;;;;;;;;;;7390681;19;20011;-64
2023/06/11 08:01:21;;;;;;;7.00;4.70;;;;;;;;;;7391594;19;20027;-64
2023/06/11 08:03:46;;;;;;;5.65;4.18;;;;;;;;;;7393782;19;20022;-64
2023/06/11 08:06:12;;;;;;;7.00;4.68;;;;;;;;;;7391112;19;20133;-64
2023/06/11 08:08:37;;;;;;;7.57;4.60;;;;;;;;;;7393598;19;20031;-64
2023/06/11 08:11:02;;;;;;;6.67;4.27;;;;;;;;;;7393571;19;20015;-64
2023/06/11 08:13:28;;;;;;;6.75;4.15;;;;;;;;;;7391762;19;20266;-64
2023/06/11 08:15:53;;;;;;;9.52;5.35;;;;;;;;;;7392046;19;20021;-64
2023/06/11 08:18:18;;;;;;;6.97;3.92;;;;;;;;;;7387217;19;20007;-64
2023/06/11 08:20:44;;;;;;;8.43;4.47;;;;;;;;;;7392430;19;20447;-63
2023/06/11 08:23:10;;;;;;;9.75;5.05;;;;;;;;;;7391174;19;20484;-63
2023/06/11 08:25:36;;;;;;;7.63;4.55;;;;;;;;;;7393431;19;20127;-63
2023/06/11 08:28:02;;;;;;;7.38;4.70;;;;;;;;;;7390372;19;20500;-63
2023/06/11 08:30:27;;;;;;;5.97;4.38;;;;;;;;;;7391420;19;20007;-64
2023/06/11 08:32:53;;;;;;;6.47;4.15;;;;;;;;;;7394609;19;20003;-64
2023/06/11 08:35:20;;;;;;;7.00;4.60;;;;;;;;;;7393630;19;20514;-64
2023/06/11 08:37:45;;;;;;;7.45;4.60;;;;;;;;;;7392952;19;20006;-62
2023/06/11 08:40:12;;;;;;;8.55;4.88;;;;;;;;;;7393365;19;20020;-62
2023/06/11 08:42:38;;;;;;;7.10;4.22;;;;;;;;;;7391810;19;20040;-62
2023/06/11 08:45:04;;;;;;;6.43;4.53;;;;;;;;;;7393775;19;20402;-62
2023/06/11 08:47:31;;;;;;;5.28;3.28;;;;;;;;;;7394148;19;20027;-63
2023/06/11 08:49:59;;;;;;;6.80;4.50;;;;;;;;;;7388423;19;20128;-63
2023/06/11 08:52:26;;;;;;;7.65;4.60;;;;;;;;;;7393354;19;20337;-62
2023/06/11 08:54:52;;;;;;;8.57;4.50;;;;;;;;;;7390449;19;20106;-61
2023/06/11 08:57:18;;;;;;;9.30;4.35;;;;;;;;;;7391001;19;20472;-62
2023/06/11 08:59:43;;;;;;;7.32;4.60;;;;;;;;;;7391834;19;20112;-64
2023/06/11 09:02:09;;;;;;;7.53;4.50;;;;;;;;;;7393224;19;20523;-64
2023/06/11 09:04:34;;;;;;;6.32;4.25;;;;;;;;;;7392148;19;20282;-64
2023/06/11 09:07:03;;;;;;;7.22;4.53;;;;;;;;;;7391909;19;20361;-63
2023/06/11 09:09:28;;;;;;;6.65;4.60;;;;;;;;;;7392092;19;20018;-64
2023/06/11 09:11:54;;;;;;;6.53;4.53;;;;;;;;;;7394314;19;20033;-64
2023/06/11 09:14:19;;;;;;;7.70;4.20;;;;;;;;;;7394216;19;20030;-64
2023/06/11 09:16:46;;;;;;;6.85;4.43;;;;;;;;;;7395905;19;20031;-64
2023/06/11 09:19:16;;;;;;;7.75;4.85;;;;;;;;;;7392505;19;20113;-64
2023/06/11 09:21:56;;;;;;;8.63;4.32;;;;;;;;;;7395245;19;19998;-64
2023/06/11 09:24:22;;;;;;;8.73;4.47;;;;;;;;;;7395811;19;20097;-67
2023/06/11 09:26:53;;;;;;;8.00;4.57;;;;;;;;;;7394849;19;20040;-69
2023/06/11 09:29:19;;;;;;;6.63;4.43;;;;;;;;;;7394749;19;20030;-69
2023/06/11 09:31:44;;;;;;;8.73;3.95;;;;;;;;;;7399174;19;20049;-70
2023/06/11 09:34:12;;;;;;;7.50;4.50;;;;;;;;;;7392958;19;20006;-70
2023/06/11 09:36:38;;;;;;;8.55;4.53;;;;;;;;;;7396163;19;20358;-71
2023/06/11 09:39:03;;;;;;;9.43;4.72;;;;;;;;;;7399348;19;20646;-70
2023/06/11 09:41:29;;;;;;;7.20;4.35;;;;;;;;;;7399462;19;20014;-68
2023/06/11 09:43:54;;;;;;;9.38;4.30;;;;;;;;;;7399257;19;20002;-69
2023/06/11 09:46:22;;;;;;;6.90;4.32;;;;;;;;;;7397782;19;20018;-68
2023/06/11 09:48:48;;;;;;;8.43;4.40;;;;;;;;;;7401320;19;20007;-67
2023/06/11 09:51:14;;;;;;;8.55;4.40;;;;;;;;;;7403534;19;20035;-69
2023/06/11 09:53:41;;;;;;;6.93;4.63;;;;;;;;;;7381372;19;20002;-67
2023/06/11 09:56:06;;;;;;;13.40;4.10;;;;;;;;;;7402308;19;20014;-70
2023/06/11 09:58:33;;;;;;;7.18;4.32;;;;;;;;;;7381842;19;20017;-69
2023/06/11 10:01:00;;;;;;;6.65;4.03;;;;;;;;;;7391854;19;20018;-69
2023/06/11 10:03:27;;;;;;;7.63;4.40;;;;;;;;;;7387397;19;20507;-70
2023/06/11 10:05:53;;;;;;;8.65;4.18;;;;;;;;;;7384790;19;20070;-69
2023/06/11 10:08:26;;;;;;;12.15;4.43;;;;;;;;;;7406308;19;20100;-70
2023/06/11 10:10:55;;;;;;;6.85;4.00;;;;;;;;;;7388839;19;20014;-69
2023/06/11 10:13:32;;;;;;;8.63;4.18;;;;;;;;;;7394282;19;20238;-69
2023/06/11 10:16:06;;;;;;;7.55;4.28;;;;;;;;;;7390285;19;20308;-68
2023/06/11 10:18:32;;;;;;;11.05;4.10;;;;;;;;;;7383079;19;20027;-69
2023/06/11 10:21:00;;;;;;;6.82;4.38;;;;;;;;;;7382780;19;20014;-68
2023/06/11 10:23:40;;;;;;;11.27;4.95;;;;;;;;;;7396816;19;19999;-68
2023/06/11 10:26:06;;;;;;;11.90;4.40;;;;;;;;;;7379900;19;20091;-70
2023/06/11 10:28:41;;;;;;;8.50;5.47;;;;;;;;;;7379214;19;20279;-70
2023/06/11 10:31:07;;;;;;;7.88;4.90;;;;;;;;;;7377214;19;20350;-70
2023/06/11 10:33:45;;;;;;;12.88;4.65;;;;;;;;;;7374559;19;20025;-70
2023/06/11 10:36:27;;;;;;;7.53;4.22;;;;;;;;;;7374436;19;20084;-69
2023/06/11 10:39:08;;;;;;;7.35;4.15;;;;;;;;;;7373290;19;20050;-70
2023/06/11 10:41:39;;;;;;;7.22;4.65;;;;;;;;;;7395521;19;20074;-70
2023/06/11 10:44:04;;;;;;;7.20;4.22;;;;;;;;;;7370486;19;20012;-68
2023/06/11 10:46:30;;;;;;;7.68;3.90;;;;;;;;;;7371689;19;20002;-71
2023/06/11 10:48:55;;;;;;;7.80;4.30;;;;;;;;;;7371669;19;20030;-71
2023/06/11 10:51:21;;;;;;;6.25;4.20;;;;;;;;;;7393518;19;20022;-69
2023/06/11 10:53:54;;;;;;;7.32;4.78;;;;;;;;;;7369720;19;20436;-71
2023/06/11 10:56:21;;;;;;;5.95;3.95;;;;;;;;;;7371783;19;20007;-70
2023/06/11 10:58:50;;;;;;;8.93;4.00;;;;;;;;;;7380011;19;20015;-69
2023/06/11 11:01:19;;;;;;;9.27;3.83;;;;;;;;;;7377239;19;20100;-70
2023/06/11 11:03:45;;;;;;;10.25;4.15;;;;;;;;;;7349100;19;20023;-69
2023/06/11 11:06:11;;;;;;;6.55;4.30;;;;;;;;;;7391146;19;20105;-70
2023/06/11 11:08:36;;;;;;;11.50;4.18;;;;;;;;;;7371830;19;20020;-69
2023/06/11 11:11:01;;;;;;;10.18;4.35;;;;;;;;;;7363349;19;20006;-72
2023/06/11 11:13:30;;;;;;;10.20;4.53;;;;;;;;;;7366898;19;20015;-71
2023/06/11 11:15:58;;;;;;;9.98;4.43;;;;;;;;;;7370794;19;20471;-69
2023/06/11 11:18:23;;;;;;;8.50;4.53;;;;;;;;;;7382100;19;20528;-70
2023/06/11 11:20:52;;;;;;;8.00;4.20;;;;;;;;;;7377752;19;20018;-70
2023/06/11 11:23:17;;;;;;;7.50;4.45;;;;;;;;;;7367668;19;20368;-71
2023/06/11 11:25:42;;;;;;;5.30;3.90;;;;;;;;;;7370623;19;20070;-71
2023/06/11 11:28:10;;;;;;;8.25;4.60;;;;;;;;;;7368806;19;20250;-70
2023/06/11 11:30:35;;;;;;;9.15;4.50;;;;;;;;;;7365221;19;20444;-71
2023/06/11 11:33:02;;;;;;;9.57;3.80;;;;;;;;;;7390397;19;20006;-71
2023/06/11 11:35:28;;;;;;;8.18;4.25;;;;;;;;;;7366399;19;20014;-71
2023/06/11 11:37:54;;;;;;;6.43;4.05;;;;;;;;;;7365646;19;20036;-70
2023/06/11 11:40:23;;;;;;;7.32;4.30;;;;;;;;;;7366076;19;20416;-70
2023/06/11 11:42:55;;;;;;;7.43;4.28;;;;;;;;;;7367314;19;20014;-71
2023/06/11 11:45:30;;;;;;;7.20;4.20;;;;;;;;;;7390942;19;20457;-70
2023/06/11 11:47:55;;;;;;;8.18;4.40;;;;;;;;;;7367461;19;20343;-69
2023/06/11 11:50:23;;;;;;;8.88;4.63;;;;;;;;;;7367015;19;20025;-70
2023/06/11 11:53:06;;;;;;;6.80;4.28;;;;;;;;;;7362879;19;20086;-72
2023/06/11 11:55:40;;;;;;;14.30;5.57;;;;;;;;;;7365931;19;20098;-71
2023/06/11 11:58:08;;;;;;;7.85;4.57;;;;;;;;;;7370747;19;20718;-70
2023/06/11 12:00:35;;;;;;;7.80;4.50;;;;;;;;;;7370786;19;20101;-70
2023/06/11 12:03:10;;;;;;;7.70;4.30;;;;;;;;;;7389758;19;20006;-70
2023/06/11 12:05:37;;;;;;;9.32;4.28;;;;;;;;;;7370475;19;20472;-73
2023/06/11 12:08:04;;;;;;;7.45;4.05;;;;;;;;;;7368972;19;20013;-70
2023/06/11 12:10:29;;;;;;;8.50;4.68;;;;;;;;;;7369745;19;20012;-70
2023/06/11 12:12:54;;;;;;;7.25;4.13;;;;;;;;;;7368979;19;20070;-70
2023/06/11 12:15:20;;;;;;;6.70;4.40;;;;;;;;;;7391217;19;20464;-69
2023/06/11 12:17:45;;;;;;;7.28;4.45;;;;;;;;;;7367887;19;20018;-69
2023/06/11 12:20:12;;;;;;;10.50;4.35;;;;;;;;;;7367695;19;20007;-70
2023/06/11 12:22:38;;;;;;;7.35;4.40;;;;;;;;;;7369758;19;20019;-70
2023/06/11 12:25:04;;;;;;;7.00;4.20;;;;;;;;;;7368692;19;20146;-70
2023/06/11 12:27:30;;;;;;;7.55;4.78;;;;;;;;;;7366063;19;20402;-70
2023/06/11 12:29:55;;;;;;;9.60;4.45;;;;;;;;;;7388731;19;20014;-70
2023/06/11 12:32:21;;;;;;;6.78;4.20;;;;;;;;;;7367755;19;20014;-71
2023/06/11 12:34:49;;;;;;;7.63;4.68;;;;;;;;;;7368842;19;20006;-70
2023/06/11 12:37:16;;;;;;;6.43;4.63;;;;;;;;;;7369721;19;20073;-70
2023/06/11 12:39:44;;;;;;;8.90;4.93;;;;;;;;;;7367838;19;21184;-70
2023/06/11 12:42:10;;;;;;;6.60;4.40;;;;;;;;;;7390738;19;20287;-70
2023/06/11 12:44:36;;;;;;;7.32;4.38;;;;;;;;;;7368454;19;20018;-70
2023/06/11 12:47:02;;;;;;;6.88;4.40;;;;;;;;;;7369561;19;20006;-70
2023/06/11 12:49:29;;;;;;;6.10;4.47;;;;;;;;;;7372201;19;20023;-70
2023/06/11 12:51:54;;;;;;;8.18;4.43;;;;;;;;;;7385693;19;20095;-71
2023/06/11 12:54:23;;;;;;;7.53;4.50;;;;;;;;;;7401280;19;20378;-70
2023/06/11 12:56:52;;;;;;;6.13;3.95;;;;;;;;;;7368429;19;20014;-70
2023/06/11 12:59:17;;;;;;;7.07;4.15;;;;;;;;;;7370803;19;20655;-70
2023/06/11 13:01:43;;;;;;;8.10;4.47;;;;;;;;;;7373203;19;20018;-69
2023/06/11 13:04:09;;;;;;;7.30;3.80;;;;;;;;;;7370210;19;20017;-70
2023/06/11 13:06:35;;;;;;;8.52;4.57;;;;;;;;;;7369231;19;20385;-71
2023/06/11 13:09:00;;;;;;;6.65;4.25;;;;;;;;;;7390484;19;20013;-71
2023/06/11 13:11:26;;;;;;;6.57;4.07;;;;;;;;;;7368581;19;20426;-70
2023/06/11 13:13:52;;;;;;;6.25;4.32;;;;;;;;;;7367895;19;20006;-69
2023/06/11 13:16:17;;;;;;;6.45;4.43;;;;;;;;;;7366285;19;20038;-69
2023/06/11 13:18:43;;;;;;;9.18;4.00;;;;;;;;;;7366503;19;20075;-68
2023/06/11 13:21:08;;;;;;;8.32;4.10;;;;;;;;;;7388314;19;20016;-70
2023/06/11 13:23:33;;;;;;;8.32;4.20;;;;;;;;;;7366623;19;20015;-70
2023/06/11 13:26:00;;;;;;;6.88;4.10;;;;;;;;;;7365223;19;20040;-71
2023/06/11 13:28:27;;;;;;;5.28;3.88;;;;;;;;;;7361812;19;20054;-69
2023/06/11 13:30:54;;;;;;;7.80;4.78;;;;;;;;;;7363671;19;20050;-69
2023/06/11 13:33:20;;;;;;;6.63;4.18;;;;;;;;;;7381113;19;20033;-65
2023/06/11 13:35:46;;;;;;;7.82;4.00;;;;;;;;;;7361151;19;20129;-65
2023/06/11 13:38:12;;;;;;;6.60;3.95;;;;;;;;;;7358795;19;20070;-64
2023/06/11 13:40:37;;;;;;;8.75;4.90;;;;;;;;;;7354789;19;20091;-65
2023/06/11 13:43:03;;;;;;;9.63;4.07;;;;;;;;;;7359993;19;20103;-65
2023/06/11 13:45:28;;;;;;;8.13;3.95;;;;;;;;;;7361659;19;20014;-64
2023/06/11 13:47:55;;;;;;;15.63;4.82;;;;;;;;;;7384941;19;20015;-63
2023/06/11 13:50:21;;;;;;;8.38;4.00;;;;;;;;;;7364646;19;20095;-64
2023/06/11 13:52:46;;;;;;;6.05;4.05;;;;;;;;;;7364600;19;20611;-66
2023/06/11 13:55:12;;;;;;;7.10;4.47;;;;;;;;;;7365034;19;20012;-71
2023/06/11 13:57:37;;;;;;;7.07;3.80;;;;;;;;;;7363022;19;20601;-71
2023/06/11 14:00:04;;;;;;;9.95;4.57;;;;;;;;;;7385850;19;20574;-71
2023/06/11 14:02:29;;;;;;;7.22;4.35;;;;;;;;;;7362477;19;20030;-71
2023/06/11 14:04:55;;;;;;;6.47;4.03;;;;;;;;;;7361656;19;20002;-70
2023/06/11 14:07:20;;;;;;;6.70;3.83;;;;;;;;;;7365455;19;20753;-71
2023/06/11 14:09:46;;;;;;;8.07;4.35;;;;;;;;;;7363602;19;20025;-70
2023/06/11 14:12:12;;;;;;;8.23;4.05;;;;;;;;;;7388068;19;20019;-71
2023/06/11 14:14:37;;;;;;;7.15;4.07;;;;;;;;;;7368479;19;20015;-71
2023/06/11 14:17:04;;;;;;;6.55;3.90;;;;;;;;;;7373213;19;20085;-70
2023/06/11 14:19:30;;;;;;;8.05;4.10;;;;;;;;;;7372595;19;20018;-71
2023/06/11 14:21:57;;;;;;;8.55;4.25;;;;;;;;;;7372194;19;20010;-71
2023/06/11 14:24:23;;;;;;;7.55;3.88;;;;;;;;;;7395398;19;20011;-70
2023/06/11 14:26:49;;;;;;;12.38;4.53;;;;;;;;;;7369488;19;20017;-71
2023/06/11 14:29:14;;;;;;;7.35;4.38;;;;;;;;;;7373533;19;20010;-71
2023/06/11 14:31:39;;;;;;;9.38;4.05;;;;;;;;;;7373750;19;20057;-70
2023/06/11 14:34:05;;;;;;;8.27;4.10;;;;;;;;;;7374164;19;20090;-70
2023/06/11 14:36:30;;;;;;;8.90;4.45;;;;;;;;;;7373941;19;20014;-71